CheckWX is a tool to help pilots better visualize weather data.  It is not intended as a substitute for an official pre-flight weather briefing.

05:50:53 UTC

LTAR TAF
Sivas Airport
Sivas, Turkey
TAF LTAR 240440Z 2406/2415 12010KT 9999 SCT035 BKN090

Feb-24@
06:00 UTC

Feb-24 @ 06:00 UTC

Feb-24@
15:00 UTC

Feb-24 @ 15:00 UTC

TAF LTAR 240440Z 2406/2415 12010KT 9999 SCT035 BKN090
Wind
  • 120° at 10 KTS
Cloud Levels
  • Scattered at 3,500' AGL
  • Broken at 9,000' AGL